Time;durP1;ratioP1;P1;durP2;ratioP2;P2;SDS_P1;SDS_P2;PMS_P1;PMS_P2;Temp;Humidity;BMP_temperature;BMP_pressure;BME280_temperature;BME280_humidity;BME280_pressure;Samples;Min_cycle;Max_cycle;Signal;HPM_P1;HPM_P2
2021/12/08 00:01:42;;;;;;;14.82;7.13;;;;;;;;;;4927964;29;20535;-69
2021/12/08 00:04:13;;;;;;;14.55;6.03;;;;;;;;;;4924517;29;20059;-68
2021/12/08 00:06:43;;;;;;;23.55;7.47;;;;;;;;;;4913523;29;20079;-68
2021/12/08 00:09:46;;;;;;;17.17;6.70;;;;;;;;;;4920474;29;20052;-67
2021/12/08 00:15:07;;;;;;;18.95;6.70;;;;;;;;;;4983380;28;20058;-68
2021/12/08 00:17:37;;;;;;;16.25;5.50;;;;;;;;;;4987422;28;20085;-68
2021/12/08 00:20:08;;;;;;;15.80;4.28;;;;;;;;;;4989428;28;20049;-70
2021/12/08 00:22:39;;;;;;;16.98;3.30;;;;;;;;;;4989039;28;20065;-68
2021/12/08 00:25:10;;;;;;;8.63;3.00;;;;;;;;;;4989777;28;20382;-68
2021/12/08 00:27:41;;;;;;;14.00;2.20;;;;;;;;;;4950272;29;20074;-68
2021/12/08 00:30:12;;;;;;;15.30;2.97;;;;;;;;;;4946983;29;20063;-69
2021/12/08 00:32:45;;;;;;;9.85;2.83;;;;;;;;;;4941243;29;20077;-69
2021/12/08 00:35:15;;;;;;;15.55;2.38;;;;;;;;;;4939545;29;20082;-68
2021/12/08 00:37:46;;;;;;;7.00;1.65;;;;;;;;;;4916647;28;20051;-70
2021/12/08 00:40:18;;;;;;;22.88;2.35;;;;;;;;;;4918671;29;20062;-68
2021/12/08 00:42:49;;;;;;;14.45;1.85;;;;;;;;;;4909515;29;20062;-72
2021/12/08 00:45:21;;;;;;;13.98;1.98;;;;;;;;;;4934631;28;20055;-68
2021/12/08 00:47:53;;;;;;;13.10;1.95;;;;;;;;;;4931342;29;20052;-69
2021/12/08 00:50:27;;;;;;;9.63;1.77;;;;;;;;;;4931638;29;20059;-69
2021/12/08 00:52:59;;;;;;;7.32;1.67;;;;;;;;;;4933526;29;20074;-70
2021/12/08 00:55:31;;;;;;;11.30;2.15;;;;;;;;;;4919950;29;20444;-69
2021/12/08 00:58:01;;;;;;;8.10;2.40;;;;;;;;;;4934868;29;20404;-70
2021/12/08 01:00:37;;;;;;;8.63;2.30;;;;;;;;;;4935030;28;20424;-70
2021/12/08 01:03:09;;;;;;;7.97;1.55;;;;;;;;;;4933076;28;20082;-69
2021/12/08 01:05:46;;;;;;;8.13;1.70;;;;;;;;;;4947347;28;20047;-69
2021/12/08 01:08:18;;;;;;;8.13;1.73;;;;;;;;;;4953399;28;20507;-70
2021/12/08 01:10:52;;;;;;;11.15;1.75;;;;;;;;;;4960682;28;20051;-69
2021/12/08 01:13:24;;;;;;;10.88;1.60;;;;;;;;;;4972565;28;20051;-68
2021/12/08 01:15:56;;;;;;;8.32;1.50;;;;;;;;;;4984122;28;20430;-68
2021/12/08 01:18:29;;;;;;;7.38;1.30;;;;;;;;;;5011469;28;20569;-68
2021/12/08 01:21:03;;;;;;;7.13;1.20;;;;;;;;;;5011470;28;20049;-69
2021/12/08 01:23:34;;;;;;;7.38;1.60;;;;;;;;;;5011398;28;20062;-68
2021/12/08 01:26:07;;;;;;;6.15;1.92;;;;;;;;;;5038489;28;20049;-68
2021/12/08 01:28:38;;;;;;;9.88;3.33;;;;;;;;;;5038734;28;20148;-68
2021/12/08 01:31:11;;;;;;;5.65;1.95;;;;;;;;;;5009433;28;20074;-68
2021/12/08 01:33:41;;;;;;;7.38;1.50;;;;;;;;;;5000181;28;20054;-69
2021/12/08 01:36:12;;;;;;;6.85;1.10;;;;;;;;;;4999631;28;20414;-68
2021/12/08 01:38:42;;;;;;;4.13;0.93;;;;;;;;;;5001034;28;20057;-67
2021/12/08 01:41:13;;;;;;;1.52;0.80;;;;;;;;;;4998841;28;20422;-69
2021/12/08 01:45:57;;;;;;;2.40;0.75;;;;;;;;;;5001694;28;20061;-68
2021/12/08 01:46:34;;;;;;;6.70;0.82;;;;;;;;;;4979513;28;20498;-68
2021/12/08 01:49:05;;;;;;;4.65;0.98;;;;;;;;;;4987230;28;20545;-68
2021/12/08 01:51:37;;;;;;;2.88;0.90;;;;;;;;;;4959205;28;20584;-68
2021/12/08 01:54:08;;;;;;;2.80;1.08;;;;;;;;;;4941593;28;20052;-68
2021/12/08 01:56:40;;;;;;;2.42;0.95;;;;;;;;;;4941996;29;20059;-70
2021/12/08 01:59:11;;;;;;;1.83;0.63;;;;;;;;;;4941790;29;20054;-67
2021/12/08 02:01:44;;;;;;;3.22;0.75;;;;;;;;;;4944336;29;20058;-68
2021/12/08 02:04:15;;;;;;;2.30;0.77;;;;;;;;;;4940211;28;20107;-67
2021/12/08 02:06:47;;;;;;;2.53;1.25;;;;;;;;;;4944365;29;20047;-72
2021/12/08 02:09:18;;;;;;;4.10;0.90;;;;;;;;;;4916813;29;20056;-68
2021/12/08 02:11:55;;;;;;;0.98;0.57;;;;;;;;;;4914310;29;20063;-67
2021/12/08 02:14:26;;;;;;;2.13;0.70;;;;;;;;;;4927012;29;20539;-67
2021/12/08 02:16:58;;;;;;;3.58;0.65;;;;;;;;;;4933047;29;20063;-65
2021/12/08 02:19:29;;;;;;;3.97;0.63;;;;;;;;;;4917392;29;20048;-68
2021/12/08 02:21:59;;;;;;;4.60;0.73;;;;;;;;;;4917495;29;20055;-68
2021/12/08 02:24:30;;;;;;;3.15;0.73;;;;;;;;;;4938435;29;20155;-68
2021/12/08 02:27:00;;;;;;;6.75;0.85;;;;;;;;;;4949567;29;20051;-69
2021/12/08 02:29:44;;;;;;;3.28;0.63;;;;;;;;;;4952238;29;20058;-68
2021/12/08 02:48:55;;;;;;;3.08;0.77;;;;;;;;;;4990688;28;20062;-68
2021/12/08 02:51:25;;;;;;;5.60;0.85;;;;;;;;;;5004749;28;20062;-67
2021/12/08 02:53:59;;;;;;;3.97;0.70;;;;;;;;;;5009149;28;20057;-68
2021/12/08 02:56:30;;;;;;;4.13;0.80;;;;;;;;;;5010220;28;20558;-67
2021/12/08 02:59:01;;;;;;;3.70;0.60;;;;;;;;;;5010340;28;20058;-67
2021/12/08 03:01:33;;;;;;;3.70;0.90;;;;;;;;;;5010099;28;20133;-67
2021/12/08 03:04:05;;;;;;;1.58;0.77;;;;;;;;;;5015193;28;20498;-67
2021/12/08 03:06:35;;;;;;;3.15;0.63;;;;;;;;;;4974123;28;20053;-68
2021/12/08 03:09:07;;;;;;;1.77;0.60;;;;;;;;;;4959289;28;20544;-68
2021/12/08 03:11:38;;;;;;;3.15;1.02;;;;;;;;;;4923257;28;20050;-67
2021/12/08 03:14:13;;;;;;;2.97;0.77;;;;;;;;;;4971121;28;20546;-69
2021/12/08 03:16:50;;;;;;;2.00;0.55;;;;;;;;;;4990222;28;20061;-67
2021/12/08 03:19:23;;;;;;;3.30;0.90;;;;;;;;;;4990518;28;20054;-68
2021/12/08 03:21:55;;;;;;;4.13;0.80;;;;;;;;;;4990415;28;20384;-68
2021/12/08 03:24:35;;;;;;;;;;;;;;;;;;4990766;28;20078;-70
2021/12/08 03:27:12;;;;;;;2.65;0.80;;;;;;;;;;4990535;28;20322;-67
2021/12/08 03:29:54;;;;;;;7.32;0.93;;;;;;;;;;5009624;28;20064;-67
2021/12/08 03:32:36;;;;;;;3.38;0.85;;;;;;;;;;5010034;28;20058;-69
2021/12/08 03:35:17;;;;;;;2.20;0.80;;;;;;;;;;4949525;28;20516;-67
2021/12/08 03:37:47;;;;;;;7.13;1.05;;;;;;;;;;4961473;28;20057;-67
2021/12/08 03:40:21;;;;;;;3.13;0.80;;;;;;;;;;4961586;28;20054;-67
2021/12/08 03:42:55;;;;;;;3.30;0.75;;;;;;;;;;4999231;28;20123;-67
2021/12/08 03:45:33;;;;;;;1.65;0.80;;;;;;;;;;5009831;28;20050;-68
2021/12/08 03:48:09;;;;;;;2.33;0.70;;;;;;;;;;4989609;28;20061;-66
2021/12/08 03:50:43;;;;;;;1.85;1.17;;;;;;;;;;4990155;28;20062;-67
2021/12/08 03:53:16;;;;;;;3.13;0.75;;;;;;;;;;4990215;28;20066;-67
2021/12/08 03:55:48;;;;;;;1.80;0.60;;;;;;;;;;4990212;28;20058;-68
2021/12/08 03:58:19;;;;;;;;;;;;;;;;;;4990261;28;20058;-67
2021/12/08 04:00:51;;;;;;;3.92;0.63;;;;;;;;;;5009457;28;19944;-68
2021/12/08 04:03:23;;;;;;;1.90;0.73;;;;;;;;;;5009433;28;20057;-67
2021/12/08 04:05:56;;;;;;;3.53;0.80;;;;;;;;;;4986271;28;20047;-67
2021/12/08 04:08:43;;;;;;;2.55;0.88;;;;;;;;;;4989414;28;20514;-65
2021/12/08 04:11:14;;;;;;;4.35;0.73;;;;;;;;;;4990086;28;20050;-68
2021/12/08 04:13:53;;;;;;;1.13;0.50;;;;;;;;;;4989915;28;20062;-67
2021/12/08 04:16:28;;;;;;;1.20;0.60;;;;;;;;;;4974093;28;20057;-70
2021/12/08 04:19:00;;;;;;;2.60;0.80;;;;;;;;;;4970193;28;20066;-67
2021/12/08 04:21:32;;;;;;;3.83;0.80;;;;;;;;;;4970464;28;20055;-67
2021/12/08 04:24:03;;;;;;;1.95;0.50;;;;;;;;;;4970201;28;20047;-68
2021/12/08 04:26:44;;;;;;;2.80;0.80;;;;;;;;;;4972613;28;20054;-67
2021/12/08 04:29:15;;;;;;;3.38;0.70;;;;;;;;;;4978019;28;20047;-66
2021/12/08 04:31:48;;;;;;;1.27;0.60;;;;;;;;;;4993455;28;20069;-68
2021/12/08 04:34:25;;;;;;;2.63;0.70;;;;;;;;;;4988216;28;20058;-67
2021/12/08 04:37:02;;;;;;;4.22;0.73;;;;;;;;;;4993351;28;20110;-65
2021/12/08 04:39:54;;;;;;;2.03;0.90;;;;;;;;;;4935054;29;20451;-67
2021/12/08 04:42:50;;;;;;;6.13;0.98;;;;;;;;;;4954162;29;20527;-69
2021/12/08 04:45:25;;;;;;;4.95;1.00;;;;;;;;;;4953935;29;20496;-67
2021/12/08 04:51:21;;;;;;;5.88;0.73;;;;;;;;;;4934719;29;20048;-67
2021/12/08 05:10:08;;;;;;;4.22;1.50;;;;;;;;;;4916043;29;20435;-67
2021/12/08 05:12:38;;;;;;;1.55;0.50;;;;;;;;;;4915449;29;20052;-68
2021/12/08 05:15:15;;;;;;;3.97;1.33;;;;;;;;;;4934731;29;20051;-66
2021/12/08 05:17:55;;;;;;;2.72;0.90;;;;;;;;;;4963876;28;20414;-67
2021/12/08 05:20:41;;;;;;;5.13;1.90;;;;;;;;;;4940810;28;20094;-67
2021/12/08 05:23:31;;;;;;;3.03;0.98;;;;;;;;;;4961110;28;20059;-66
2021/12/08 05:26:07;;;;;;;3.22;1.08;;;;;;;;;;4921823;29;20055;-66
2021/12/08 05:28:39;;;;;;;5.70;0.90;;;;;;;;;;4965574;28;20061;-68
2021/12/08 05:31:14;;;;;;;5.30;1.05;;;;;;;;;;4972944;28;20066;-67
2021/12/08 05:33:46;;;;;;;3.58;1.33;;;;;;;;;;4972537;28;20058;-66
2021/12/08 05:36:17;;;;;;;6.47;1.20;;;;;;;;;;4973019;28;20042;-67
2021/12/08 05:38:50;;;;;;;3.65;1.35;;;;;;;;;;4924349;28;20057;-70
2021/12/08 05:41:31;;;;;;;4.72;1.13;;;;;;;;;;4972960;28;20054;-67
2021/12/08 05:44:03;;;;;;;7.38;1.30;;;;;;;;;;4972458;28;20058;-67
2021/12/08 05:46:36;;;;;;;3.28;1.00;;;;;;;;;;4972628;28;20065;-70
2021/12/08 05:49:09;;;;;;;2.80;1.13;;;;;;;;;;4972684;28;20062;-66
2021/12/08 05:51:40;;;;;;;4.15;1.50;;;;;;;;;;4974950;28;20070;-66
2021/12/08 05:54:20;;;;;;;6.35;1.13;;;;;;;;;;4991306;28;20050;-66
2021/12/08 05:56:56;;;;;;;6.07;1.30;;;;;;;;;;4959862;28;20502;-67
2021/12/08 05:59:27;;;;;;;3.30;1.27;;;;;;;;;;4991871;28;20065;-67
2021/12/08 06:02:05;;;;;;;4.47;1.20;;;;;;;;;;4991968;28;20491;-67
2021/12/08 06:04:36;;;;;;;4.45;1.35;;;;;;;;;;4968372;28;20058;-68
2021/12/08 06:07:08;;;;;;;2.90;1.25;;;;;;;;;;4953217;29;20094;-67
2021/12/08 06:09:40;;;;;;;8.32;1.42;;;;;;;;;;4952788;29;20059;-67
2021/12/08 06:12:11;;;;;;;3.35;1.25;;;;;;;;;;4953079;29;20055;-66
2021/12/08 06:14:41;;;;;;;3.60;1.20;;;;;;;;;;4921390;29;20066;-67
2021/12/08 06:17:18;;;;;;;5.32;1.40;;;;;;;;;;4937184;29;20058;-69
2021/12/08 06:19:52;;;;;;;3.55;1.10;;;;;;;;;;4937177;29;20076;-67
2021/12/08 06:22:24;;;;;;;4.80;1.23;;;;;;;;;;4901880;29;20069;-69
2021/12/08 06:24:54;;;;;;;3.67;1.33;;;;;;;;;;4901933;29;20051;-69
2021/12/08 06:27:29;;;;;;;4.80;1.38;;;;;;;;;;4914501;29;20048;-68
2021/12/08 06:30:06;;;;;;;3.42;1.25;;;;;;;;;;4913963;29;20397;-67
2021/12/08 06:32:36;;;;;;;5.75;1.30;;;;;;;;;;4914713;29;20164;-67
2021/12/08 06:35:11;;;;;;;3.75;1.10;;;;;;;;;;4932937;29;20059;-67
2021/12/08 06:37:43;;;;;;;2.35;1.00;;;;;;;;;;4917465;29;20054;-69
2021/12/08 06:40:20;;;;;;;3.03;1.25;;;;;;;;;;4917780;29;20051;-67
2021/12/08 06:42:55;;;;;;;4.50;1.40;;;;;;;;;;4913921;29;20072;-69
2021/12/08 06:45:35;;;;;;;4.15;1.20;;;;;;;;;;4914041;29;20056;-67
2021/12/08 06:48:10;;;;;;;3.55;1.20;;;;;;;;;;4914093;29;20063;-68
2021/12/08 06:50:48;;;;;;;4.95;1.33;;;;;;;;;;4912798;29;20064;-72
2021/12/08 06:53:19;;;;;;;5.57;1.42;;;;;;;;;;4932380;29;20056;-69
2021/12/08 06:55:57;;;;;;;5.63;1.58;;;;;;;;;;4933091;29;20175;-68
2021/12/08 06:58:34;;;;;;;4.80;1.35;;;;;;;;;;4932798;29;20071;-68
2021/12/08 07:04:07;;;;;;;3.35;1.30;;;;;;;;;;4935844;29;20062;-67
2021/12/08 07:09:17;;;;;;;4.35;1.60;;;;;;;;;;4932363;29;20052;-68
2021/12/08 07:11:51;;;;;;;11.32;1.30;;;;;;;;;;4932484;29;20068;-68
2021/12/08 07:14:24;;;;;;;3.35;1.33;;;;;;;;;;4934712;29;20063;-69
2021/12/08 07:16:58;;;;;;;6.07;1.40;;;;;;;;;;4935636;29;20063;-68
2021/12/08 07:19:44;;;;;;;4.35;1.42;;;;;;;;;;4939469;28;20173;-69
2021/12/08 07:22:25;;;;;;;4.57;1.30;;;;;;;;;;4971081;28;20046;-71
2021/12/08 07:25:01;;;;;;;5.35;1.50;;;;;;;;;;4955080;28;20062;-70
2021/12/08 07:27:38;;;;;;;3.85;1.50;;;;;;;;;;4951541;28;20047;-71
2021/12/08 07:30:25;;;;;;;4.32;1.35;;;;;;;;;;4934103;28;20058;-70
2021/12/08 07:33:02;;;;;;;6.13;1.10;;;;;;;;;;4933393;28;20058;-72
2021/12/08 07:35:38;;;;;;;4.97;1.17;;;;;;;;;;4968555;28;20043;-70
2021/12/08 07:38:13;;;;;;;4.60;1.88;;;;;;;;;;4925065;29;20456;-69
2021/12/08 07:40:50;;;;;;;4.15;1.33;;;;;;;;;;4931947;29;20067;-69
2021/12/08 07:43:24;;;;;;;3.70;1.50;;;;;;;;;;4947735;29;20048;-70
2021/12/08 07:46:03;;;;;;;8.82;1.38;;;;;;;;;;4935956;28;20055;-69
2021/12/08 07:49:02;;;;;;;3.13;1.33;;;;;;;;;;4970817;28;20064;-69
2021/12/08 07:51:43;;;;;;;3.17;1.23;;;;;;;;;;4969532;28;20519;-69
2021/12/08 07:54:14;;;;;;;4.45;1.50;;;;;;;;;;4954837;28;20442;-70
2021/12/08 07:56:48;;;;;;;4.88;1.42;;;;;;;;;;4931910;29;20059;-69
2021/12/08 07:59:19;;;;;;;4.80;1.38;;;;;;;;;;4907050;28;20157;-72
2021/12/08 08:01:55;;;;;;;3.50;1.60;;;;;;;;;;4937538;28;20479;-69
2021/12/08 08:04:27;;;;;;;7.05;1.70;;;;;;;;;;4955324;28;20074;-68
2021/12/08 08:07:00;;;;;;;3.83;1.40;;;;;;;;;;4954900;28;20051;-69
2021/12/08 08:09:36;;;;;;;5.88;1.40;;;;;;;;;;4923099;28;20055;-70
2021/12/08 08:12:10;;;;;;;2.75;1.27;;;;;;;;;;4968873;28;20066;-72
2021/12/08 08:14:48;;;;;;;4.22;1.10;;;;;;;;;;4973113;28;20062;-69
2021/12/08 08:17:28;;;;;;;4.03;1.60;;;;;;;;;;4955164;29;20055;-70
2021/12/08 08:20:00;;;;;;;3.38;1.35;;;;;;;;;;4974076;28;20058;-69
2021/12/08 08:22:32;;;;;;;4.82;1.70;;;;;;;;;;4958230;28;20059;-69
2021/12/08 08:25:06;;;;;;;6.93;1.30;;;;;;;;;;4954535;29;20047;-69
2021/12/08 08:27:37;;;;;;;5.35;1.50;;;;;;;;;;4938996;29;20172;-69
2021/12/08 08:30:17;;;;;;;3.97;1.30;;;;;;;;;;4954755;29;20060;-69
2021/12/08 08:32:52;;;;;;;4.28;1.60;;;;;;;;;;4954361;29;20094;-70
2021/12/08 08:35:29;;;;;;;5.70;1.50;;;;;;;;;;4990552;28;20417;-69
2021/12/08 08:38:04;;;;;;;5.45;1.05;;;;;;;;;;4977272;28;20081;-70
2021/12/08 08:40:58;;;;;;;3.35;1.55;;;;;;;;;;4919658;29;20427;-69
2021/12/08 08:43:30;;;;;;;5.00;1.33;;;;;;;;;;4931522;29;20052;-69
2021/12/08 08:46:15;;;;;;;6.38;1.45;;;;;;;;;;4916180;29;20052;-68
2021/12/08 08:48:55;;;;;;;3.85;1.33;;;;;;;;;;4916039;29;20071;-69
2021/12/08 08:51:31;;;;;;;7.30;1.63;;;;;;;;;;4934890;29;20051;-70
2021/12/08 08:54:09;;;;;;;3.10;1.20;;;;;;;;;;4935237;29;20594;-69
2021/12/08 08:56:45;;;;;;;9.52;1.30;;;;;;;;;;4905480;29;20051;-70
2021/12/08 08:59:22;;;;;;;5.35;1.42;;;;;;;;;;4952651;29;20070;-69
2021/12/08 09:01:56;;;;;;;2.50;1.20;;;;;;;;;;4957575;28;20055;-70
2021/12/08 09:04:34;;;;;;;4.18;1.35;;;;;;;;;;4973284;28;20062;-70
2021/12/08 09:07:08;;;;;;;5.57;1.05;;;;;;;;;;4973418;28;20152;-69
2021/12/08 09:09:43;;;;;;;4.25;1.00;;;;;;;;;;4953886;29;20055;-70
2021/12/08 09:12:25;;;;;;;2.20;1.00;;;;;;;;;;4921239;28;20059;-70
2021/12/08 09:14:58;;;;;;;9.73;1.70;;;;;;;;;;4921669;29;20058;-69
2021/12/08 09:17:35;;;;;;;3.90;1.10;;;;;;;;;;4919537;29;20059;-70
2021/12/08 09:20:22;;;;;;;5.43;1.20;;;;;;;;;;4934378;29;20056;-70
2021/12/08 09:23:01;;;;;;;11.43;1.02;;;;;;;;;;4915396;29;20055;-70
2021/12/08 09:25:39;;;;;;;7.15;1.60;;;;;;;;;;4915778;29;20184;-69
2021/12/08 09:28:16;;;;;;;12.73;1.40;;;;;;;;;;4920430;29;20408;-70
2021/12/08 09:31:07;;;;;;;10.23;2.10;;;;;;;;;;4918399;29;20048;-69
2021/12/08 09:33:45;;;;;;;8.35;2.10;;;;;;;;;;4925696;29;20067;-70
2021/12/08 09:36:21;;;;;;;12.77;1.83;;;;;;;;;;4925191;29;20060;-69
2021/12/08 09:38:59;;;;;;;12.38;2.15;;;;;;;;;;4928987;29;20044;-69
2021/12/08 09:41:46;;;;;;;6.15;2.05;;;;;;;;;;4927821;29;20056;-70
2021/12/08 09:44:22;;;;;;;8.50;1.27;;;;;;;;;;4922129;29;20074;-70
2021/12/08 09:46:54;;;;;;;19.33;2.20;;;;;;;;;;4933413;29;20691;-69
2021/12/08 09:49:26;;;;;;;9.27;1.60;;;;;;;;;;4947395;28;20052;-70
2021/12/08 09:52:00;;;;;;;8.85;1.23;;;;;;;;;;4934242;29;20082;-69
2021/12/08 09:54:31;;;;;;;10.70;1.13;;;;;;;;;;4939171;29;20561;-70
2021/12/08 09:57:06;;;;;;;6.35;2.03;;;;;;;;;;4953044;29;20050;-68
2021/12/08 09:59:45;;;;;;;5.57;1.50;;;;;;;;;;4958159;28;20055;-68
2021/12/08 10:02:24;;;;;;;;;;;;;;;;;;4953249;29;20051;-69
2021/12/08 10:05:17;;;;;;;7.70;1.13;;;;;;;;;;4952973;29;20409;-68
2021/12/08 10:07:49;;;;;;;12.30;1.60;;;;;;;;;;4954634;28;20055;-68
2021/12/08 10:10:20;;;;;;;10.73;1.40;;;;;;;;;;4952158;29;20043;-68
2021/12/08 10:12:50;;;;;;;4.25;1.30;;;;;;;;;;4920355;29;20055;-67
2021/12/08 10:15:22;;;;;;;5.22;1.48;;;;;;;;;;4952457;29;20055;-68
2021/12/08 10:17:55;;;;;;;7.70;2.10;;;;;;;;;;4949255;29;20095;-68
2021/12/08 10:20:36;;;;;;;3.85;1.27;;;;;;;;;;4935123;29;20063;-69
2021/12/08 10:23:15;;;;;;;4.82;0.90;;;;;;;;;;4910231;29;20087;-67
2021/12/08 10:26:12;;;;;;;2.20;0.70;;;;;;;;;;4920607;29;20059;-68
2021/12/08 10:28:49;;;;;;;5.13;0.60;;;;;;;;;;4914607;29;20055;-67
2021/12/08 10:31:28;;;;;;;3.28;1.02;;;;;;;;;;4914788;29;20067;-69
2021/12/08 10:37:00;;;;;;;3.38;0.82;;;;;;;;;;4950520;29;20051;-66
2021/12/08 10:39:46;;;;;;;4.15;0.88;;;;;;;;;;4951431;29;20055;-67
2021/12/08 10:42:24;;;;;;;2.17;0.65;;;;;;;;;;4950319;29;20522;-68
2021/12/08 10:45:09;;;;;;;3.15;0.80;;;;;;;;;;4951768;29;20051;-68
2021/12/08 10:47:49;;;;;;;10.02;1.13;;;;;;;;;;4941943;28;20066;-66
2021/12/08 10:56:13;;;;;;;3.58;1.15;;;;;;;;;;4938641;28;20066;-67
2021/12/08 10:58:53;;;;;;;2.60;0.90;;;;;;;;;;4931754;29;20051;-68
2021/12/08 11:01:25;;;;;;;2.88;0.80;;;;;;;;;;4932464;28;20055;-67
2021/12/08 11:04:06;;;;;;;4.97;0.90;;;;;;;;;;4932631;28;20060;-67
2021/12/08 11:06:39;;;;;;;3.60;0.60;;;;;;;;;;4913352;29;20499;-68
2021/12/08 11:09:19;;;;;;;3.95;0.70;;;;;;;;;;4897165;29;20087;-69
2021/12/08 11:11:51;;;;;;;3.92;1.27;;;;;;;;;;4879749;29;20052;-68
2021/12/08 11:14:22;;;;;;;2.30;0.77;;;;;;;;;;4931194;28;20400;-67
2021/12/08 11:16:52;;;;;;;2.35;0.77;;;;;;;;;;4913283;29;20060;-66
2021/12/08 11:19:24;;;;;;;3.65;0.77;;;;;;;;;;4912760;29;20059;-66
2021/12/08 11:22:03;;;;;;;2.40;0.63;;;;;;;;;;4913178;29;20052;-69
2021/12/08 11:24:48;;;;;;;2.47;0.75;;;;;;;;;;4913019;29;20063;-68
2021/12/08 11:27:33;;;;;;;3.13;0.63;;;;;;;;;;4931905;29;20055;-66
2021/12/08 11:30:22;;;;;;;3.88;1.08;;;;;;;;;;4930341;29;20067;-67
2021/12/08 11:33:10;;;;;;;4.25;0.90;;;;;;;;;;4914374;29;20059;-70
2021/12/08 11:35:41;;;;;;;4.35;0.98;;;;;;;;;;4955344;28;20050;-67
2021/12/08 11:38:11;;;;;;;3.70;0.82;;;;;;;;;;4966435;28;20058;-65
2021/12/08 11:40:42;;;;;;;1.92;0.73;;;;;;;;;;4922904;29;20052;-66
2021/12/08 11:43:14;;;;;;;4.47;1.25;;;;;;;;;;4897087;29;20056;-67
2021/12/08 11:45:44;;;;;;;3.70;0.80;;;;;;;;;;4926085;28;20051;-67
2021/12/08 11:48:25;;;;;;;2.03;0.60;;;;;;;;;;4926162;29;20059;-67
2021/12/08 11:51:12;;;;;;;3.80;0.63;;;;;;;;;;4957622;28;20051;-68
2021/12/08 11:53:43;;;;;;;1.95;0.88;;;;;;;;;;4960982;28;20054;-68
2021/12/08 11:56:33;;;;;;;3.90;0.70;;;;;;;;;;4963054;28;20058;-68
2021/12/08 11:59:05;;;;;;;;;;;;;;;;;;4958774;28;20451;-66
2021/12/08 12:01:37;;;;;;;4.80;0.73;;;;;;;;;;4960741;28;19934;-69
2021/12/08 12:04:11;;;;;;;3.33;0.65;;;;;;;;;;4920904;29;20063;-68
2021/12/08 12:06:41;;;;;;;2.72;0.95;;;;;;;;;;4903987;29;20556;-66
2021/12/08 12:09:12;;;;;;;5.30;0.90;;;;;;;;;;4884066;29;20049;-67
2021/12/08 12:11:54;;;;;;;3.95;0.80;;;;;;;;;;4850005;29;20103;-66
2021/12/08 12:14:24;;;;;;;3.40;0.88;;;;;;;;;;4883527;29;20053;-68
2021/12/08 12:16:55;;;;;;;14.35;12.25;;;;;;;;;;4884256;29;20421;-68
2021/12/08 12:19:30;;;;;;;3.45;0.98;;;;;;;;;;4919393;29;20063;-67
2021/12/08 12:22:16;;;;;;;3.90;1.15;;;;;;;;;;4912106;29;20052;-66
2021/12/08 12:25:13;;;;;;;5.63;2.60;;;;;;;;;;4895148;29;20056;-67
2021/12/08 12:28:05;;;;;;;3.50;0.77;;;;;;;;;;4931411;29;20063;-66
2021/12/08 12:31:06;;;;;;;5.45;1.48;;;;;;;;;;4930785;29;20542;-65
2021/12/08 12:33:42;;;;;;;3.05;1.65;;;;;;;;;;4928632;29;20074;-67
2021/12/08 12:36:32;;;;;;;3.85;1.17;;;;;;;;;;4950817;29;20068;-67
2021/12/08 12:39:12;;;;;;;4.25;0.70;;;;;;;;;;4950301;29;20066;-65
2021/12/08 12:42:11;;;;;;;2.70;0.55;;;;;;;;;;4961308;28;20066;-67
2021/12/08 12:45:06;;;;;;;2.83;0.82;;;;;;;;;;4989234;28;20057;-66
2021/12/08 12:47:37;;;;;;;2.83;0.73;;;;;;;;;;4916697;29;20052;-65
2021/12/08 12:50:21;;;;;;;2.70;0.80;;;;;;;;;;4915517;29;20508;-67
2021/12/08 12:52:54;;;;;;;2.03;0.63;;;;;;;;;;4915518;29;20063;-68
2021/12/08 12:55:35;;;;;;;4.00;1.58;;;;;;;;;;4916163;29;20060;-68
2021/12/08 12:58:09;;;;;;;2.47;0.65;;;;;;;;;;4879648;29;20056;-67
2021/12/08 13:01:05;;;;;;;3.05;0.70;;;;;;;;;;4931863;29;20043;-70
2021/12/08 13:03:40;;;;;;;8.43;1.02;;;;;;;;;;4934760;29;20052;-66
2021/12/08 13:06:14;;;;;;;5.50;1.10;;;;;;;;;;4934868;29;20415;-65
2021/12/08 13:08:50;;;;;;;6.57;0.65;;;;;;;;;;4905465;29;20579;-66
2021/12/08 13:11:33;;;;;;;5.13;1.08;;;;;;;;;;4942621;29;20416;-67
2021/12/08 13:14:03;;;;;;;5.97;0.52;;;;;;;;;;4934489;29;20412;-64
2021/12/08 13:16:35;;;;;;;3.70;1.73;;;;;;;;;;4934916;29;20059;-67
2021/12/08 13:19:07;;;;;;;;;;;;;;;;;;4934856;29;20070;-66
2021/12/08 13:21:41;;;;;;;2.58;0.80;;;;;;;;;;4935134;29;19923;-66
2021/12/08 13:24:36;;;;;;;3.13;0.88;;;;;;;;;;4955734;28;20061;-66
2021/12/08 13:27:08;;;;;;;6.32;0.95;;;;;;;;;;4995956;28;20509;-66
2021/12/08 13:29:46;;;;;;;2.03;0.60;;;;;;;;;;4963884;28;20154;-66
2021/12/08 13:32:26;;;;;;;5.60;0.50;;;;;;;;;;4992141;28;20054;-66
2021/12/08 13:34:59;;;;;;;5.53;0.60;;;;;;;;;;5011339;28;20076;-66
2021/12/08 13:37:29;;;;;;;2.95;0.73;;;;;;;;;;4995148;28;20535;-66
2021/12/08 13:40:07;;;;;;;2.15;0.68;;;;;;;;;;5012252;28;20053;-64
2021/12/08 13:42:55;;;;;;;4.72;1.00;;;;;;;;;;5011613;28;20402;-64
2021/12/08 13:45:25;;;;;;;4.22;0.65;;;;;;;;;;4995123;28;20533;-66
2021/12/08 13:48:04;;;;;;;4.00;0.70;;;;;;;;;;4991799;28;20047;-66
2021/12/08 13:50:37;;;;;;;1.98;0.70;;;;;;;;;;4992114;28;20069;-66
2021/12/08 13:53:16;;;;;;;5.38;1.20;;;;;;;;;;4959629;28;20422;-66
2021/12/08 13:55:59;;;;;;;3.50;0.60;;;;;;;;;;4945629;28;20450;-66
2021/12/08 13:58:37;;;;;;;5.30;1.30;;;;;;;;;;5011431;28;20472;-66
2021/12/08 14:01:17;;;;;;;2.28;0.70;;;;;;;;;;4995248;28;20045;-66
2021/12/08 14:03:49;;;;;;;1.35;0.80;;;;;;;;;;4991717;28;20402;-66
2021/12/08 14:06:20;;;;;;;2.83;0.50;;;;;;;;;;4991823;28;20058;-64
2021/12/08 14:08:50;;;;;;;3.33;0.60;;;;;;;;;;4951243;29;20563;-66
2021/12/08 14:11:23;;;;;;;4.60;0.90;;;;;;;;;;4933954;29;20060;-66
2021/12/08 14:13:53;;;;;;;1.33;0.65;;;;;;;;;;4933789;29;20062;-66
2021/12/08 14:16:25;;;;;;;2.97;0.93;;;;;;;;;;4933809;29;20420;-65
2021/12/08 14:19:02;;;;;;;3.20;1.08;;;;;;;;;;4933399;29;20052;-65
2021/12/08 14:21:49;;;;;;;6.38;0.80;;;;;;;;;;4972152;28;20055;-65
2021/12/08 14:24:29;;;;;;;1.63;0.60;;;;;;;;;;4971208;28;20053;-66
2021/12/08 14:26:59;;;;;;;8.18;0.90;;;;;;;;;;4972074;28;20090;-65
2021/12/08 14:29:29;;;;;;;3.78;0.98;;;;;;;;;;4971901;28;20059;-66
2021/12/08 14:32:00;;;;;;;4.20;0.68;;;;;;;;;;4955994;28;20058;-67
2021/12/08 14:34:39;;;;;;;4.13;0.60;;;;;;;;;;4939681;28;20059;-65
2021/12/08 14:37:14;;;;;;;5.28;0.80;;;;;;;;;;4971567;28;20438;-68
2021/12/08 14:39:49;;;;;;;2.78;0.70;;;;;;;;;;4988859;28;20055;-65
2021/12/08 14:42:33;;;;;;;2.60;0.60;;;;;;;;;;4988341;28;20750;-65
2021/12/08 14:45:07;;;;;;;2.47;0.63;;;;;;;;;;4962452;28;20532;-65
2021/12/08 14:47:42;;;;;;;2.38;0.70;;;;;;;;;;5010210;28;20050;-66
2021/12/08 14:50:22;;;;;;;3.53;0.70;;;;;;;;;;5010513;28;20057;-65
2021/12/08 14:52:52;;;;;;;1.83;0.47;;;;;;;;;;5010543;28;20046;-66
2021/12/08 14:55:30;;;;;;;2.40;0.52;;;;;;;;;;4994180;28;20057;-66
2021/12/08 14:58:00;;;;;;;5.63;0.60;;;;;;;;;;5010581;28;20061;-66
2021/12/08 15:00:32;;;;;;;3.72;0.90;;;;;;;;;;5010327;28;20062;-66
2021/12/08 15:03:14;;;;;;;3.20;0.65;;;;;;;;;;4990479;28;20379;-66
2021/12/08 15:05:49;;;;;;;2.97;0.60;;;;;;;;;;5028821;28;20061;-65
2021/12/08 15:08:24;;;;;;;2.20;0.57;;;;;;;;;;5029691;28;20429;-65
2021/12/08 15:10:54;;;;;;;4.35;0.60;;;;;;;;;;5029159;28;20080;-68
2021/12/08 15:13:31;;;;;;;2.42;0.52;;;;;;;;;;4974725;28;20061;-67
2021/12/08 15:16:03;;;;;;;2.75;0.70;;;;;;;;;;4990613;28;20061;-67
2021/12/08 15:18:33;;;;;;;;;;;;;;;;;;4942546;28;20085;-67
2021/12/08 15:21:11;;;;;;;1.17;0.52;;;;;;;;;;5009811;28;19928;-63
2021/12/08 15:23:49;;;;;;;2.65;0.60;;;;;;;;;;5009946;28;20065;-65
2021/12/08 15:26:24;;;;;;;4.97;0.50;;;;;;;;;;4989885;28;20054;-63
2021/12/08 15:28:55;;;;;;;3.55;0.70;;;;;;;;;;4951256;29;20446;-64
2021/12/08 15:31:30;;;;;;;5.72;0.60;;;;;;;;;;4951243;29;20192;-63
2021/12/08 15:34:16;;;;;;;5.63;0.80;;;;;;;;;;4951426;29;20055;-63
2021/12/08 15:36:59;;;;;;;2.78;0.52;;;;;;;;;;4951270;29;20078;-63
2021/12/08 15:39:32;;;;;;;3.08;1.30;;;;;;;;;;4951503;29;20420;-61
2021/12/08 15:42:06;;;;;;;5.53;0.90;;;;;;;;;;4931923;29;20447;-63
2021/12/08 15:44:38;;;;;;;5.70;0.70;;;;;;;;;;4900561;29;20067;-63
2021/12/08 15:47:10;;;;;;;1.30;0.50;;;;;;;;;;4931633;29;20054;-62
2021/12/08 15:49:42;;;;;;;5.35;0.70;;;;;;;;;;4932166;29;20055;-63
2021/12/08 15:52:17;;;;;;;4.38;0.60;;;;;;;;;;4954463;28;20066;-63
2021/12/08 15:54:48;;;;;;;1.73;0.77;;;;;;;;;;4970533;28;20062;-63
2021/12/08 15:57:22;;;;;;;3.47;0.70;;;;;;;;;;4970384;28;20062;-64
2021/12/08 15:59:53;;;;;;;4.60;0.60;;;;;;;;;;4970761;28;20066;-62
2021/12/08 16:02:28;;;;;;;3.13;0.55;;;;;;;;;;4970496;28;20050;-63
2021/12/08 16:05:04;;;;;;;1.40;0.57;;;;;;;;;;4988110;28;20074;-62
2021/12/08 16:07:49;;;;;;;3.63;0.80;;;;;;;;;;4950948;28;20059;-62
2021/12/08 16:10:28;;;;;;;2.75;0.50;;;;;;;;;;4951287;28;20051;-66
2021/12/08 16:13:01;;;;;;;3.72;0.68;;;;;;;;;;4951136;28;20140;-64
2021/12/08 16:15:51;;;;;;;4.45;0.65;;;;;;;;;;4931544;29;20063;-62
2021/12/08 16:18:27;;;;;;;3.95;0.68;;;;;;;;;;4931940;29;20067;-65
2021/12/08 16:20:59;;;;;;;5.07;0.85;;;;;;;;;;4935824;29;20063;-65
2021/12/08 16:23:29;;;;;;;4.63;0.70;;;;;;;;;;4938037;29;20055;-64
2021/12/08 16:26:01;;;;;;;3.28;0.73;;;;;;;;;;4993421;28;20054;-64
2021/12/08 16:28:38;;;;;;;3.67;0.70;;;;;;;;;;4978268;28;20050;-65